Time;durP1;ratioP1;P1;durP2;ratioP2;P2;SDS_P1;SDS_P2;PMS_P1;PMS_P2;Temp;Humidity;BMP_temperature;BMP_pressure;BME280_temperature;BME280_humidity;BME280_pressure;Samples;Min_cycle;Max_cycle;Signal;HPM_P1;HPM_P2
2021/12/01 00:00:18;;;;;;;13.60;5.30;;;;;;;15.62;61.92;101740.59;5014707;28;20030;-67
2021/12/01 00:02:46;;;;;;;9.20;5.78;;;;;;;15.44;65.15;101736.47;5016104;28;20040;-64
2021/12/01 00:05:12;;;;;;;11.32;5.47;;;;;;;15.29;66.00;101734.94;5016802;28;20029;-64
2021/12/01 00:07:39;;;;;;;11.68;5.28;;;;;;;15.27;66.17;101741.19;5017527;28;20033;-65
2021/12/01 00:10:06;;;;;;;7.63;4.60;;;;;;;15.07;66.28;101741.53;5014721;28;20042;-69
2021/12/01 00:12:33;;;;;;;11.43;5.32;;;;;;;14.97;67.28;101741.66;5021623;28;20119;-68
2021/12/01 00:14:59;;;;;;;10.43;3.35;;;;;;;14.83;66.34;101733.88;5027833;28;20080;-70
2021/12/01 00:17:26;;;;;;;5.45;3.30;;;;;;;14.78;65.20;101743.69;5036558;28;20040;-69
2021/12/01 00:19:53;;;;;;;5.63;2.53;;;;;;;14.63;66.63;101739.47;5028169;28;20030;-68
2021/12/01 00:22:19;;;;;;;;;;;;;;;14.44;66.27;101741.50;5023279;28;20094;-65
2021/12/01 00:24:45;;;;;;;8.88;2.95;;;;;;;14.28;67.42;101735.50;5015288;28;19952;-65
2021/12/01 00:27:11;;;;;;;6.25;2.92;;;;;;;14.12;67.96;101736.56;5023865;28;20060;-68
2021/12/01 00:29:38;;;;;;;6.82;3.22;;;;;;;14.01;68.48;101742.00;5012276;28;20041;-67
2021/12/01 00:32:04;;;;;;;;;;;;;;;13.83;68.70;101738.66;5008344;28;20045;-65
2021/12/01 00:34:32;;;;;;;696.63;565.15;;;;;;;13.75;69.86;101745.78;5014337;28;19920;-72
2021/12/01 00:38:26;;;;;;;16.30;10.15;;;;;;;13.84;71.63;101744.81;5112316;27;20420;-78
2021/12/01 00:40:53;;;;;;;8.95;3.90;;;;;;;13.74;70.36;101743.16;5095394;28;20805;-75
2021/12/01 00:43:20;;;;;;;5.63;3.70;;;;;;;13.65;69.90;101738.84;5090972;28;20056;-76
2021/12/01 00:45:58;;;;;;;;;;;;;;;13.57;69.38;101736.25;5090548;28;20086;-72
2021/12/01 00:48:25;;;;;;;8.13;2.60;;;;;;;13.45;70.00;101736.38;5084091;28;19920;-72
2021/12/01 00:50:53;;;;;;;7.28;2.70;;;;;;;13.34;70.39;101736.41;5090533;28;20060;-73
2021/12/01 00:53:20;;;;;;;5.63;2.85;;;;;;;13.23;70.38;101723.22;5091088;28;20436;-72
2021/12/01 00:55:46;;;;;;;8.35;2.92;;;;;;;13.16;70.27;101730.38;5096231;28;20380;-72
2021/12/01 00:58:14;;;;;;;15.20;3.47;;;;;;;13.07;70.11;101734.88;5088128;28;20032;-72
2021/12/01 01:00:41;;;;;;;8.68;2.67;;;;;;;12.97;70.49;101731.38;5091432;28;20036;-73
2021/12/01 01:03:08;;;;;;;7.93;4.22;;;;;;;12.89;70.67;101735.88;5094366;28;20016;-72
2021/12/01 01:05:36;;;;;;;9.88;3.00;;;;;;;12.79;71.06;101727.09;5094077;28;20024;-72
2021/12/01 01:08:02;;;;;;;7.43;3.30;;;;;;;12.68;71.33;101730.69;5074804;28;20111;-73
2021/12/01 01:10:34;;;;;;;4.28;2.90;;;;;;;12.59;71.37;101729.88;5089350;28;20402;-73
2021/12/01 01:18:36;;;;;;;4.40;2.67;;;;;;;12.30;71.60;101738.84;5093492;28;20086;-73
2021/12/01 01:21:03;;;;;;;8.63;2.70;;;;;;;12.24;71.71;101744.16;5083701;28;20109;-73
2021/12/01 01:23:30;;;;;;;13.75;3.47;;;;;;;12.15;71.62;101745.09;5087617;28;20020;-74
2021/12/01 01:26:00;;;;;;;10.98;2.70;;;;;;;12.07;71.39;101736.25;5093777;28;20020;-73
2021/12/01 01:28:26;;;;;;;6.93;3.28;;;;;;;11.99;71.86;101747.75;5090428;28;20024;-74
2021/12/01 01:30:56;;;;;;;8.70;3.15;;;;;;;11.90;72.37;101754.81;5089177;28;20057;-73
2021/12/01 01:33:22;;;;;;;8.73;3.15;;;;;;;11.85;72.42;101754.81;5099606;28;20040;-73
2021/12/01 01:35:49;;;;;;;;;;;;;;;11.80;72.84;101759.25;5091064;28;20028;-73
2021/12/01 01:38:15;;;;;;;9.52;3.00;;;;;;;11.72;71.96;101751.31;5087012;28;19916;-74
2021/12/01 01:40:41;;;;;;;;;;;;;;;11.65;72.73;101755.72;5088485;28;20032;-68
2021/12/01 01:43:08;;;;;;;9.15;2.65;;;;;;;11.54;72.34;101754.88;5091508;28;19912;-74
2021/12/01 01:45:34;;;;;;;6.60;3.17;;;;;;;11.46;72.73;101754.88;5088320;28;20047;-77
2021/12/01 01:48:04;;;;;;;;;;;;;;;11.42;72.88;101757.50;5082185;28;20033;-74
2021/12/01 01:50:37;;;;;;;7.90;2.97;;;;;;;11.35;73.13;101756.63;5073538;28;19912;-75
2021/12/01 01:53:25;;;;;;;6.80;2.90;;;;;;;11.27;72.77;101755.75;5073907;28;20020;-74
2021/12/01 01:56:04;;;;;;;5.82;2.80;;;;;;;11.20;73.57;101757.50;5074738;28;20047;-74
2021/12/01 01:58:30;;;;;;;5.15;2.97;;;;;;;11.15;73.52;101756.63;5072064;28;20062;-74
2021/12/01 02:01:06;;;;;;;7.85;2.92;;;;;;;11.11;73.51;101762.78;5073496;28;20037;-74
2021/12/01 02:03:37;;;;;;;4.93;2.45;;;;;;;11.02;73.51;101761.91;5074120;28;20033;-71
2021/12/01 02:06:04;;;;;;;8.52;3.00;;;;;;;10.96;73.96;101759.22;5076559;28;20040;-76
2021/12/01 02:08:32;;;;;;;6.88;3.40;;;;;;;10.91;74.14;101765.41;5076777;28;20028;-76
2021/12/01 02:10:59;;;;;;;5.30;2.97;;;;;;;10.85;73.71;101764.50;5076582;28;20028;-79
2021/12/01 02:13:27;;;;;;;6.05;3.17;;;;;;;10.79;74.19;101771.53;5075430;28;20361;-80
2021/12/01 02:15:55;;;;;;;6.38;2.70;;;;;;;10.74;74.26;101768.00;5076705;28;20029;-76
2021/12/01 02:18:21;;;;;;;6.25;3.03;;;;;;;10.67;74.81;101778.53;5075720;28;20086;-77
2021/12/01 02:21:05;;;;;;;5.75;2.88;;;;;;;10.62;74.68;101777.66;5076292;28;20024;-83
2021/12/01 02:23:32;;;;;;;11.73;3.63;;;;;;;10.56;75.13;101771.47;5074499;28;20037;-76
2021/12/01 02:25:59;;;;;;;7.05;3.42;;;;;;;10.53;74.97;101775.00;5068965;28;20093;-72
2021/12/01 02:28:25;;;;;;;6.30;3.88;;;;;;;10.44;74.93;101775.81;5075213;28;20025;-70
2021/12/01 02:30:51;;;;;;;5.97;3.97;;;;;;;10.40;75.29;101779.31;5071622;28;20032;-70
2021/12/01 02:33:17;;;;;;;7.18;3.20;;;;;;;10.33;75.46;101782.75;5073838;28;20040;-73
2021/12/01 02:35:44;;;;;;;8.13;3.45;;;;;;;10.30;75.62;101781.00;5075257;28;20115;-71
2021/12/01 02:38:10;;;;;;;6.57;3.55;;;;;;;10.28;75.23;101787.16;5074686;28;20030;-72
2021/12/01 02:40:36;;;;;;;6.07;3.17;;;;;;;10.21;75.92;101794.16;5073765;28;20117;-73
2021/12/01 02:43:03;;;;;;;6.15;3.33;;;;;;;10.14;75.87;101800.28;5072834;28;20064;-70
2021/12/01 02:45:29;;;;;;;5.22;3.45;;;;;;;10.08;76.46;101797.59;5071708;28;20035;-74
2021/12/01 02:47:55;;;;;;;6.45;3.45;;;;;;;10.02;76.52;101794.03;5074823;28;20028;-77
2021/12/01 02:50:21;;;;;;;6.03;3.47;;;;;;;9.98;76.80;101797.53;5075182;28;20041;-77
2021/12/01 02:52:48;;;;;;;7.97;3.40;;;;;;;9.95;77.11;101789.59;5074807;28;20431;-75
2021/12/01 02:55:19;;;;;;;6.13;3.35;;;;;;;9.91;76.90;101792.22;5076123;28;20047;-79
2021/12/01 02:57:53;;;;;;;6.10;3.88;;;;;;;9.87;76.89;101788.69;5079754;28;20025;-79
2021/12/01 03:00:22;;;;;;;5.35;3.28;;;;;;;9.82;77.01;101783.34;5075038;28;20094;-74
2021/12/01 03:02:51;;;;;;;7.13;3.88;;;;;;;9.79;77.69;101785.97;5068071;28;20365;-72
2021/12/01 03:05:19;;;;;;;5.55;4.10;;;;;;;9.73;77.20;101782.41;5071138;28;20029;-71
2021/12/01 03:07:45;;;;;;;8.38;4.20;;;;;;;9.67;77.97;101776.22;5075220;28;20029;-72
2021/12/01 03:10:12;;;;;;;;;;;;;;;9.63;77.85;101773.56;5073651;28;20039;-71
2021/12/01 03:12:40;;;;;;;7.10;4.03;;;;;;;9.56;77.94;101774.38;5082403;28;20033;-72
2021/12/01 03:15:10;;;;;;;7.47;3.88;;;;;;;9.51;78.35;101774.34;5073406;28;20052;-72
2021/12/01 03:17:36;;;;;;;6.60;4.75;;;;;;;9.47;78.47;101780.44;5105776;28;20024;-72
2021/12/01 03:20:07;;;;;;;6.93;4.25;;;;;;;9.41;78.88;101777.78;5071343;28;20040;-71
2021/12/01 03:22:33;;;;;;;7.68;4.40;;;;;;;9.38;79.29;101783.00;5067308;28;20072;-72
2021/12/01 03:25:00;;;;;;;6.15;4.25;;;;;;;9.33;79.66;101790.88;5072305;28;20382;-71
2021/12/01 03:27:26;;;;;;;8.25;4.53;;;;;;;9.28;79.41;101785.56;5071981;28;20344;-72
2021/12/01 03:29:52;;;;;;;12.45;5.38;;;;;;;9.24;80.72;101788.16;5073042;28;20063;-72
2021/12/01 03:32:20;;;;;;;7.20;3.78;;;;;;;9.18;80.23;101781.97;5072483;28;20418;-71
2021/12/01 03:34:47;;;;;;;8.02;4.10;;;;;;;9.19;79.94;101793.41;5067224;28;20039;-72
2021/12/01 03:37:13;;;;;;;;;;;;;;;9.16;80.32;101788.09;5071889;28;20399;-72
2021/12/01 03:39:39;;;;;;;9.32;3.75;;;;;;;9.12;79.88;101792.44;5071026;28;20357;-72
2021/12/01 03:42:06;;;;;;;5.22;3.92;;;;;;;9.10;80.27;101790.69;5073220;28;20458;-73
2021/12/01 03:44:32;;;;;;;8.13;4.45;;;;;;;9.06;80.76;101794.13;5072883;28;20032;-72
2021/12/01 03:46:59;;;;;;;9.73;4.70;;;;;;;9.05;80.43;101798.53;5070794;28;20745;-71
2021/12/01 03:49:25;;;;;;;9.70;4.80;;;;;;;9.02;81.10;101802.00;5068814;28;20124;-72
2021/12/01 03:51:51;;;;;;;7.53;4.47;;;;;;;9.03;81.34;101800.25;5072560;28;20442;-72
2021/12/01 03:54:17;;;;;;;8.52;4.40;;;;;;;9.00;80.57;101809.03;5073158;28;20055;-72
2021/12/01 03:56:44;;;;;;;6.15;4.03;;;;;;;8.96;81.14;101809.84;5074179;28;20043;-72
2021/12/01 03:59:10;;;;;;;7.60;4.47;;;;;;;8.93;81.21;101807.19;5070769;28;20118;-72
2021/12/01 04:01:36;;;;;;;6.82;4.15;;;;;;;8.93;81.05;101814.22;5073190;28;20103;-73
2021/12/01 04:04:03;;;;;;;8.63;4.90;;;;;;;8.90;80.97;101812.44;5073459;28;20415;-73
2021/12/01 04:06:29;;;;;;;11.95;4.20;;;;;;;8.88;81.59;101818.53;5069222;28;20435;-72
2021/12/01 04:08:56;;;;;;;7.95;4.75;;;;;;;8.83;81.87;101819.38;5069610;28;20040;-72
2021/12/01 04:11:22;;;;;;;6.60;4.20;;;;;;;8.81;82.12;101817.59;5072548;28;20028;-72
2021/12/01 04:13:49;;;;;;;5.80;3.97;;;;;;;8.78;81.91;101814.91;5073019;28;20032;-72
2021/12/01 04:16:15;;;;;;;9.25;4.70;;;;;;;8.74;81.82;101811.38;5068582;28;20032;-73
2021/12/01 04:18:42;;;;;;;10.07;4.63;;;;;;;8.75;81.84;101812.25;5074134;28;20089;-72
2021/12/01 04:21:08;;;;;;;6.40;4.22;;;;;;;8.72;82.02;101822.75;5072172;28;20029;-73
2021/12/01 04:23:34;;;;;;;9.32;4.30;;;;;;;8.67;81.89;101828.84;5074110;28;20032;-73
2021/12/01 04:26:02;;;;;;;10.23;4.68;;;;;;;8.65;81.90;101827.94;5074952;28;20119;-73
2021/12/01 04:28:29;;;;;;;8.05;4.50;;;;;;;8.64;82.07;101820.03;5068012;28;20032;-73
2021/12/01 04:30:55;;;;;;;9.35;4.03;;;;;;;8.59;81.71;101825.22;5071447;28;20537;-73
2021/12/01 04:33:21;;;;;;;7.43;4.53;;;;;;;8.57;81.80;101826.06;5072662;28;20115;-74
2021/12/01 04:35:49;;;;;;;6.45;4.57;;;;;;;8.53;81.82;101830.44;5072237;28;20359;-74
2021/12/01 04:38:16;;;;;;;6.90;4.40;;;;;;;8.49;81.85;101828.63;5071280;28;20036;-73
2021/12/01 04:40:42;;;;;;;9.43;4.47;;;;;;;8.46;82.48;101831.19;5073138;28;20070;-72
2021/12/01 04:43:08;;;;;;;8.05;4.47;;;;;;;8.43;82.68;101841.66;5073623;28;20017;-73
2021/12/01 04:45:41;;;;;;;7.13;4.53;;;;;;;8.40;82.65;101831.09;5073675;28;20051;-73
2021/12/01 04:48:07;;;;;;;7.55;4.28;;;;;;;8.35;82.64;101829.28;5072500;28;20036;-72
2021/12/01 04:50:33;;;;;;;8.88;4.88;;;;;;;8.37;82.32;101831.03;5072359;28;20035;-73
2021/12/01 04:52:59;;;;;;;7.20;4.47;;;;;;;8.31;82.31;101823.94;5070458;28;20073;-73
2021/12/01 04:55:27;;;;;;;7.53;4.00;;;;;;;8.28;82.73;101832.69;5073205;28;20043;-73
2021/12/01 04:57:53;;;;;;;10.70;4.70;;;;;;;8.25;82.55;101835.28;5072131;28;20066;-73
2021/12/01 05:00:26;;;;;;;5.43;4.30;;;;;;;8.22;82.79;101834.34;5070861;28;20121;-72
2021/12/01 05:02:52;;;;;;;8.60;4.43;;;;;;;8.20;82.82;101826.44;5071793;28;20076;-73
2021/12/01 05:05:18;;;;;;;5.45;4.50;;;;;;;8.17;83.06;101829.03;5072114;28;20021;-73
2021/12/01 05:07:45;;;;;;;8.35;4.38;;;;;;;8.14;83.06;101831.59;5073499;28;20024;-73
2021/12/01 05:10:12;;;;;;;9.48;4.65;;;;;;;8.11;83.38;101824.53;5072805;28;20078;-72
2021/12/01 05:12:39;;;;;;;5.38;4.40;;;;;;;8.08;83.50;101829.75;5077997;28;20028;-73
2021/12/01 05:15:05;;;;;;;;;;;;;;;8.06;83.11;101834.09;5077892;28;20047;-73
2021/12/01 05:17:32;;;;;;;5.78;4.50;;;;;;;7.99;82.99;101835.75;5070411;28;19916;-73
2021/12/01 05:19:58;;;;;;;6.22;4.40;;;;;;;7.94;83.71;101837.44;5071390;28;20044;-73
2021/12/01 05:22:25;;;;;;;7.70;4.57;;;;;;;7.93;83.99;101840.03;5072487;28;20044;-73
2021/12/01 05:24:52;;;;;;;6.78;4.30;;;;;;;7.89;83.49;101833.88;5075465;28;20033;-73
2021/12/01 05:27:18;;;;;;;6.47;4.80;;;;;;;7.88;83.42;101837.34;5075503;28;20029;-73
2021/12/01 05:29:44;;;;;;;11.60;5.30;;;;;;;7.87;83.43;101834.72;5075648;28;20060;-73
2021/12/01 05:32:10;;;;;;;5.00;4.10;;;;;;;7.84;83.34;101835.53;5076158;28;20024;-72
2021/12/01 05:34:36;;;;;;;7.15;4.13;;;;;;;7.82;83.31;101842.50;5076562;28;20025;-73
2021/12/01 05:37:03;;;;;;;4.82;3.67;;;;;;;7.80;83.02;101837.22;5076250;28;20020;-73
2021/12/01 05:39:29;;;;;;;;;;;;;;;7.78;83.19;101838.94;5075413;28;20032;-73
2021/12/01 05:41:57;;;;;;;5.93;3.53;;;;;;;7.75;82.73;101838.03;5076210;28;20393;-73
2021/12/01 05:44:23;;;;;;;5.25;3.92;;;;;;;7.70;83.25;101830.03;5075971;28;20059;-73
2021/12/01 05:46:49;;;;;;;5.50;4.05;;;;;;;7.70;82.96;101826.53;5075366;28;20142;-72
2021/12/01 05:49:15;;;;;;;5.40;3.83;;;;;;;7.65;82.64;101831.69;5073386;28;20035;-73
2021/12/01 05:51:43;;;;;;;5.70;3.50;;;;;;;7.64;82.68;101825.56;5075993;28;20024;-73
2021/12/01 05:54:09;;;;;;;6.68;3.90;;;;;;;7.63;82.48;101828.19;5075147;28;20052;-72
2021/12/01 05:56:36;;;;;;;7.32;3.47;;;;;;;7.59;82.83;101821.09;5076119;28;20454;-73
2021/12/01 05:59:02;;;;;;;6.35;4.10;;;;;;;7.57;82.75;101828.06;5076046;28;20535;-73
2021/12/01 06:01:29;;;;;;;5.15;3.20;;;;;;;7.56;82.64;101824.56;5073472;28;20029;-73
2021/12/01 06:03:55;;;;;;;4.47;3.35;;;;;;;7.52;82.55;101830.63;5072217;28;20072;-73
2021/12/01 06:06:21;;;;;;;9.65;3.97;;;;;;;7.48;82.91;101823.53;5080295;28;20028;-74
2021/12/01 06:08:47;;;;;;;4.80;3.65;;;;;;;7.46;82.75;101822.63;5078339;28;20475;-73
2021/12/01 06:11:14;;;;;;;3.97;3.13;;;;;;;7.40;82.78;101826.03;5087287;28;20032;-73
2021/12/01 06:13:41;;;;;;;;;;;;;;;7.37;82.84;101818.09;5087000;28;20043;-72
2021/12/01 06:16:07;;;;;;;3.92;2.92;;;;;;;7.34;82.50;101823.28;5096681;28;20010;-71
2021/12/01 06:18:33;;;;;;;;;;;;;;;7.29;82.46;101817.94;5081326;28;20041;-70
2021/12/01 06:21:00;;;;;;;8.88;3.00;;;;;;;7.24;82.33;101819.63;5076160;28;19923;-75
2021/12/01 06:23:26;;;;;;;3.53;2.67;;;;;;;7.24;82.27;101829.25;5074810;28;20033;-71
2021/12/01 06:25:53;;;;;;;5.30;2.72;;;;;;;7.17;82.63;101821.25;5073690;28;20016;-72
2021/12/01 06:28:19;;;;;;;5.18;2.90;;;;;;;7.15;82.40;101822.09;5073842;28;20036;-71
2021/12/01 06:30:45;;;;;;;5.13;2.88;;;;;;;7.10;82.40;101823.75;5068573;28;20020;-71
2021/12/01 06:33:11;;;;;;;6.32;2.25;;;;;;;7.09;82.12;101821.97;5072560;28;20024;-70
2021/12/01 06:35:38;;;;;;;3.38;2.17;;;;;;;7.08;81.98;101828.06;5085434;28;20051;-72
2021/12/01 06:38:04;;;;;;;3.70;2.65;;;;;;;7.05;82.62;101836.78;5072606;28;20043;-70
2021/12/01 06:40:31;;;;;;;5.75;2.70;;;;;;;7.05;81.80;101835.91;5071174;28;20553;-70
2021/12/01 06:42:59;;;;;;;4.13;2.50;;;;;;;6.99;82.23;101842.81;5076485;28;20032;-70
2021/12/01 06:45:25;;;;;;;4.95;2.65;;;;;;;7.00;82.09;101841.06;5072612;28;20085;-73
2021/12/01 06:47:51;;;;;;;3.78;2.63;;;;;;;6.97;82.22;101838.38;5070558;28;20028;-71
2021/12/01 06:50:18;;;;;;;4.70;2.33;;;;;;;6.96;81.97;101837.50;5072462;28;20047;-72
2021/12/01 06:52:44;;;;;;;4.05;2.58;;;;;;;6.94;82.01;101848.84;5071226;28;20465;-71
2021/12/01 06:55:10;;;;;;;4.25;2.70;;;;;;;6.92;83.07;101840.03;5073242;28;20119;-72
2021/12/01 06:57:37;;;;;;;4.53;2.60;;;;;;;6.91;82.93;101846.13;5076732;28;20115;-71
2021/12/01 07:00:07;;;;;;;4.90;2.55;;;;;;;6.88;83.08;101833.81;5074260;28;20497;-71
2021/12/01 07:02:33;;;;;;;5.95;2.65;;;;;;;6.87;82.46;101841.66;5078437;28;20032;-71
2021/12/01 07:05:00;;;;;;;6.90;3.15;;;;;;;6.82;82.46;101837.22;5076030;28;20031;-70
2021/12/01 07:07:26;;;;;;;5.18;2.80;;;;;;;6.82;82.45;101844.22;5093575;28;20028;-70
2021/12/01 07:09:53;;;;;;;4.68;2.50;;;;;;;6.78;82.32;101845.88;5083758;28;20080;-70
2021/12/01 07:12:19;;;;;;;5.05;2.40;;;;;;;6.78;83.29;101842.38;5084868;28;20036;-71
2021/12/01 07:14:45;;;;;;;5.13;2.67;;;;;;;6.75;83.32;101845.84;5087777;28;20036;-70
2021/12/01 07:17:12;;;;;;;5.07;3.10;;;;;;;6.75;82.84;101842.31;5086056;28;20117;-71
2021/12/01 07:19:38;;;;;;;;;;;;;;;6.72;83.27;101843.13;5080391;28;20194;-70
2021/12/01 07:22:04;;;;;;;5.15;2.58;;;;;;;6.69;83.35;101843.06;5111579;27;20388;-70
2021/12/01 07:24:30;;;;;;;4.85;3.20;;;;;;;6.71;83.48;101851.88;5072170;28;20052;-70
2021/12/01 07:26:57;;;;;;;4.65;3.20;;;;;;;6.68;83.76;101857.03;5072195;28;20039;-70
2021/12/01 07:29:25;;;;;;;6.85;3.60;;;;;;;6.65;83.69;101850.00;5070617;28;20039;-70
2021/12/01 07:31:52;;;;;;;7.85;3.35;;;;;;;6.66;83.54;101858.78;5082262;28;20370;-70
2021/12/01 07:34:18;;;;;;;8.38;3.40;;;;;;;6.64;84.36;101861.34;5071828;28;20043;-70
2021/12/01 07:36:44;;;;;;;5.38;3.50;;;;;;;6.65;84.04;101863.13;5069740;28;20447;-70
2021/12/01 07:39:11;;;;;;;5.85;3.35;;;;;;;6.64;84.49;101852.59;5070821;28;20044;-70
2021/12/01 07:41:37;;;;;;;7.65;3.50;;;;;;;6.65;84.41;101865.75;5070115;28;20039;-70
2021/12/01 07:44:03;;;;;;;6.75;3.30;;;;;;;6.65;84.37;101859.63;5069604;28;20082;-71
2021/12/01 07:46:29;;;;;;;5.93;4.00;;;;;;;6.67;84.81;101861.44;5070136;28;20016;-70
2021/12/01 07:48:55;;;;;;;6.35;3.50;;;;;;;6.66;85.14;101853.53;5064815;28;20078;-70
2021/12/01 07:51:22;;;;;;;6.82;4.47;;;;;;;6.68;85.81;101855.31;5081678;28;20028;-69
2021/12/01 07:53:49;;;;;;;8.90;4.20;;;;;;;6.72;86.55;101860.63;5070470;28;20368;-70
2021/12/01 07:56:15;;;;;;;8.40;4.60;;;;;;;6.71;85.38;101858.84;5067347;28;20170;-70
2021/12/01 07:58:41;;;;;;;6.90;4.72;;;;;;;6.73;85.80;101854.53;5068159;28;20043;-71
2021/12/01 08:01:07;;;;;;;9.27;4.95;;;;;;;6.75;85.55;101860.69;5069016;28;20062;-71
2021/12/01 08:03:33;;;;;;;6.57;4.95;;;;;;;6.78;86.34;101853.75;5070351;28;20062;-71
2021/12/01 08:06:00;;;;;;;7.97;4.40;;;;;;;6.80;86.42;101845.91;5074808;28;20024;-71
2021/12/01 08:08:26;;;;;;;7.90;4.95;;;;;;;6.85;86.91;101845.16;5064681;28;20529;-71
2021/12/01 08:10:52;;;;;;;11.88;5.32;;;;;;;6.83;86.89;101836.38;5068987;28;20028;-71
2021/12/01 08:13:18;;;;;;;7.43;4.78;;;;;;;6.85;86.69;101849.53;5071265;28;20089;-71
2021/12/01 08:15:46;;;;;;;9.98;5.53;;;;;;;6.86;86.82;101835.53;5069378;28;20477;-71
2021/12/01 08:18:12;;;;;;;7.45;4.95;;;;;;;6.85;86.83;101837.25;5068053;28;20028;-71
2021/12/01 08:20:39;;;;;;;8.93;5.70;;;;;;;6.85;87.34;101839.00;5066654;28;20462;-71
2021/12/01 08:23:05;;;;;;;10.95;5.78;;;;;;;6.87;86.98;101841.66;5066776;28;20044;-71
2021/12/01 08:25:31;;;;;;;10.20;5.88;;;;;;;6.89;87.83;101835.59;5066604;28;20052;-71
2021/12/01 08:28:00;;;;;;;9.05;5.70;;;;;;;6.91;87.73;101835.63;5070498;28;20063;-71
2021/12/01 08:30:26;;;;;;;10.40;5.93;;;;;;;6.89;87.67;101839.97;5068500;28;20365;-71
2021/12/01 08:32:54;;;;;;;;;;;;;;;6.87;88.05;101828.53;5064890;28;20530;-71
2021/12/01 08:35:21;;;;;;;10.03;5.73;;;;;;;6.82;87.51;101816.19;5070877;28;19912;-71
2021/12/01 08:37:47;;;;;;;11.15;6.05;;;;;;;6.84;87.95;101816.22;5069747;28;20037;-71
2021/12/01 08:40:15;;;;;;;8.50;5.60;;;;;;;6.83;88.20;101819.69;5070845;28;20032;-69
2021/12/01 08:42:42;;;;;;;11.50;5.90;;;;;;;6.79;87.83;101821.41;5069123;28;20029;-69
2021/12/01 08:45:09;;;;;;;11.60;6.03;;;;;;;6.78;88.06;101819.63;5077938;28;20115;-69
2021/12/01 08:47:35;;;;;;;12.73;6.07;;;;;;;6.75;88.14;101816.94;5069804;28;20520;-69
2021/12/01 08:50:02;;;;;;;8.50;5.75;;;;;;;6.73;87.69;101818.63;5066920;28;20058;-69
2021/12/01 08:52:29;;;;;;;7.88;5.50;;;;;;;6.70;87.62;101810.72;5067647;28;20127;-69
2021/12/01 08:54:55;;;;;;;11.88;5.95;;;;;;;6.70;87.97;101818.59;5074034;28;20028;-69
2021/12/01 08:57:21;;;;;;;12.95;5.53;;;;;;;6.70;87.98;101817.69;5091132;28;20143;-69
2021/12/01 08:59:49;;;;;;;9.60;5.75;;;;;;;6.68;87.94;101822.91;5087270;28;20406;-69
2021/12/01 09:02:15;;;;;;;10.38;5.78;;;;;;;6.73;88.45;101826.53;5081366;28;20036;-70
2021/12/01 09:04:41;;;;;;;10.63;5.78;;;;;;;6.72;88.04;101831.75;5076329;28;20381;-69
2021/12/01 09:07:07;;;;;;;9.75;6.00;;;;;;;6.72;87.96;101829.13;5088174;28;20425;-68
2021/12/01 09:09:33;;;;;;;10.73;6.13;;;;;;;6.68;88.07;101826.44;5081511;28;20067;-72
2021/12/01 09:12:00;;;;;;;7.88;5.50;;;;;;;6.68;88.56;101826.44;5081240;28;20039;-69
2021/12/01 09:14:26;;;;;;;9.57;5.43;;;;;;;6.67;88.21;101835.16;5073500;28;20284;-69
2021/12/01 09:16:55;;;;;;;7.22;4.72;;;;;;;6.70;87.85;101836.06;5073290;28;20111;-70
2021/12/01 09:19:22;;;;;;;7.43;5.32;;;;;;;6.67;88.39;101829.91;5069145;28;20040;-75
2021/12/01 09:21:49;;;;;;;9.35;5.18;;;;;;;6.65;88.17;101823.72;5072686;28;20501;-75
2021/12/01 09:24:16;;;;;;;12.57;6.47;;;;;;;6.67;88.42;101829.91;5075628;28;20040;-73
2021/12/01 09:26:43;;;;;;;9.73;5.18;;;;;;;6.67;88.57;101824.66;5073495;28;20043;-75
2021/12/01 09:29:09;;;;;;;7.68;5.30;;;;;;;6.68;88.16;101836.94;5073130;28;20462;-69
2021/12/01 09:31:36;;;;;;;7.93;5.15;;;;;;;6.68;87.64;101846.53;5069484;28;20036;-69
2021/12/01 09:34:03;;;;;;;10.75;5.40;;;;;;;6.67;88.56;101835.16;5070463;28;20032;-69
2021/12/01 09:36:30;;;;;;;10.25;5.97;;;;;;;6.66;88.30;101835.13;5073261;28;20020;-69
2021/12/01 09:38:56;;;;;;;8.15;4.88;;;;;;;6.68;88.34;101843.91;5071892;28;20522;-70
2021/12/01 09:41:23;;;;;;;9.55;4.75;;;;;;;6.67;88.24;101845.66;5072740;28;20029;-69
2021/12/01 09:43:50;;;;;;;6.38;4.88;;;;;;;6.70;88.32;101850.09;5069066;28;20048;-69
2021/12/01 09:46:17;;;;;;;;;;;;;;;6.67;88.25;101848.28;5086003;28;20450;-69
2021/12/01 09:48:43;;;;;;;8.82;5.00;;;;;;;6.65;88.51;101844.72;5067846;28;20669;-69
2021/12/01 09:51:11;;;;;;;6.82;5.13;;;;;;;6.65;88.34;101850.00;5068300;28;20064;-70
2021/12/01 09:53:38;;;;;;;9.23;5.35;;;;;;;6.61;87.59;101845.53;5068523;28;20032;-70
2021/12/01 09:56:04;;;;;;;7.10;4.45;;;;;;;6.58;87.82;101845.47;5067436;28;20462;-70
2021/12/01 09:58:31;;;;;;;7.75;4.32;;;;;;;6.55;87.83;101842.78;5066191;28;20430;-70
2021/12/01 10:01:01;;;;;;;9.95;4.22;;;;;;;6.50;87.71;101841.81;5068319;28;20024;-70
2021/12/01 10:03:29;;;;;;;9.43;4.45;;;;;;;6.45;87.11;101831.19;5065676;28;20492;-70
2021/12/01 10:06:17;;;;;;;6.63;4.25;;;;;;;6.44;87.14;101828.53;5065976;28;20036;-70
2021/12/01 10:08:57;;;;;;;6.18;3.88;;;;;;;6.40;87.47;101824.06;5098078;27;20019;-70
2021/12/01 10:11:29;;;;;;;8.20;4.70;;;;;;;6.37;87.39;101827.53;5066799;28;20051;-71
2021/12/01 10:14:01;;;;;;;6.30;4.03;;;;;;;6.36;87.80;101827.50;5070566;28;20060;-70
2021/12/01 10:16:33;;;;;;;5.32;4.25;;;;;;;6.31;87.23;101827.38;5071283;28;20042;-70
2021/12/01 10:19:03;;;;;;;7.45;4.07;;;;;;;6.29;87.92;101831.72;5074699;28;20047;-71
2021/12/01 10:21:48;;;;;;;6.57;3.88;;;;;;;6.27;87.75;101821.19;5070822;28;20112;-71
2021/12/01 10:24:19;;;;;;;10.40;4.30;;;;;;;6.24;87.33;101825.47;5069996;28;20029;-71
2021/12/01 10:26:50;;;;;;;6.47;3.78;;;;;;;6.22;87.84;101817.56;5068349;28;20400;-71
2021/12/01 10:29:19;;;;;;;7.68;4.35;;;;;;;6.22;87.60;101819.28;5080527;28;20420;-71
2021/12/01 10:31:56;;;;;;;6.85;4.18;;;;;;;6.21;87.15;101825.38;5075532;28;20516;-71
2021/12/01 10:34:32;;;;;;;7.53;3.67;;;;;;;6.18;87.93;101813.13;5078873;28;20149;-71
2021/12/01 10:37:23;;;;;;;6.45;4.10;;;;;;;6.14;87.05;101809.53;5091230;28;20055;-71
2021/12/01 10:40:20;;;;;;;6.88;4.00;;;;;;;6.13;87.91;101812.13;5081857;28;20465;-71
2021/12/01 10:43:05;;;;;;;7.35;4.00;;;;;;;6.10;87.46;101812.94;5081130;28;20119;-71
2021/12/01 10:45:34;;;;;;;6.65;4.35;;;;;;;6.10;87.50;101814.66;5088619;28;20464;-71
2021/12/01 10:48:02;;;;;;;8.07;4.50;;;;;;;6.05;87.27;101806.69;5076304;28;20024;-71
2021/12/01 10:50:31;;;;;;;8.00;4.38;;;;;;;6.04;87.58;101812.78;5090604;28;20024;-71
2021/12/01 10:53:05;;;;;;;5.95;4.28;;;;;;;6.03;88.19;101807.50;5068772;28;20024;-71
2021/12/01 10:55:32;;;;;;;5.47;3.95;;;;;;;6.01;87.47;101803.09;5069124;28;20081;-71
2021/12/01 10:58:04;;;;;;;7.60;4.38;;;;;;;6.01;87.30;101805.72;5072410;28;20035;-71
2021/12/01 11:00:32;;;;;;;7.97;4.40;;;;;;;6.01;88.00;101804.84;5076033;28;20025;-71
2021/12/01 11:03:19;;;;;;;6.63;4.72;;;;;;;6.01;87.81;101810.09;5071692;28;20025;-71
2021/12/01 11:06:09;;;;;;;6.40;4.28;;;;;;;6.01;88.07;101791.75;5072544;28;20048;-71
2021/12/01 11:08:38;;;;;;;9.48;4.65;;;;;;;5.99;87.66;101790.81;5080724;28;20039;-71
2021/12/01 11:11:18;;;;;;;9.18;4.75;;;;;;;5.97;87.99;101793.38;5092392;28;20039;-71
2021/12/01 11:13:47;;;;;;;6.22;4.30;;;;;;;5.96;87.79;101795.97;5076030;28;20060;-72
2021/12/01 11:16:15;;;;;;;8.93;4.47;;;;;;;5.98;88.07;101795.19;5076366;28;20477;-71
2021/12/01 11:18:47;;;;;;;8.02;4.93;;;;;;;6.00;88.25;101792.59;5073295;28;20036;-70
2021/12/01 11:21:18;;;;;;;11.15;5.38;;;;;;;6.01;88.74;101797.88;5072685;28;20043;-71
2021/12/01 11:23:56;;;;;;;6.45;4.60;;;;;;;6.03;88.67;101797.03;5079757;28;20400;-71
2021/12/01 11:26:26;;;;;;;11.60;5.82;;;;;;;6.02;88.89;101790.88;5073639;28;20369;-71
2021/12/01 11:28:54;;;;;;;8.20;5.18;;;;;;;6.00;87.86;101795.22;5071901;28;20029;-71
2021/12/01 11:31:29;;;;;;;10.00;4.95;;;;;;;6.00;87.96;101792.59;5070055;28;20033;-70
2021/12/01 11:33:58;;;;;;;9.05;5.10;;;;;;;5.99;88.44;101796.06;5068609;28;20032;-70
2021/12/01 11:36:27;;;;;;;12.35;7.57;;;;;;;5.98;88.84;101787.31;5066888;28;20094;-70
2021/12/01 11:38:56;;;;;;;8.98;5.15;;;;;;;6.01;88.65;101782.13;5065898;28;20655;-70
2021/12/01 11:41:23;;;;;;;9.02;5.90;;;;;;;6.01;88.98;101779.50;5068712;28;20131;-70
2021/12/01 11:43:51;;;;;;;11.15;5.70;;;;;;;6.03;88.28;101787.41;5067121;28;20056;-70